createdAt,value
2023-04-21T00:00:45.574Z,10.18
2023-04-21T00:03:13.650Z,9.73
2023-04-21T00:05:42.692Z,10.75
2023-04-21T00:08:10.842Z,10.70
2023-04-21T00:10:38.682Z,10.38
2023-04-21T00:13:06.847Z,10.25
2023-04-21T00:15:36.225Z,11.02
2023-04-21T00:18:04.779Z,10.30
2023-04-21T00:20:33.227Z,10.00
2023-04-21T00:23:01.421Z,10.13
2023-04-21T00:25:29.305Z,9.98
2023-04-21T00:27:57.212Z,9.80
2023-04-21T00:30:25.248Z,9.63
2023-04-21T00:32:54.938Z,10.88
2023-04-21T00:35:23.856Z,10.05
2023-04-21T00:37:51.675Z,9.48
2023-04-21T00:40:19.608Z,10.32
2023-04-21T00:42:47.478Z,9.52
2023-04-21T00:45:15.903Z,10.18
2023-04-21T00:47:43.881Z,10.35
2023-04-21T00:50:14.091Z,10.85
2023-04-21T00:52:43.818Z,11.07
2023-04-21T00:55:11.874Z,10.95
2023-04-21T00:57:39.781Z,11.05
2023-04-21T01:00:10.509Z,11.30
2023-04-21T01:02:40.102Z,11.43
2023-04-21T01:05:09.267Z,10.95
2023-04-21T01:07:40.874Z,10.68
2023-04-21T01:10:09.907Z,11.63
2023-04-21T01:12:44.353Z,11.82
2023-04-21T01:15:12.987Z,11.45
2023-04-21T01:17:41.645Z,11.23
2023-04-21T01:20:12.303Z,11.15
2023-04-21T01:22:44.565Z,10.98
2023-04-21T01:25:12.783Z,10.95
2023-04-21T01:27:40.676Z,11.32
2023-04-21T01:30:10.301Z,10.55
2023-04-21T01:32:38.451Z,10.65
2023-04-21T01:35:07.415Z,10.38
2023-04-21T01:37:35.320Z,10.25
2023-04-21T01:40:08.715Z,11.27
2023-04-21T01:42:42.598Z,11.32
2023-04-21T01:45:11.611Z,10.43
2023-04-21T01:47:39.586Z,11.18
2023-04-21T01:50:08.562Z,10.57
2023-04-21T01:52:36.409Z,9.98
2023-04-21T01:55:06.397Z,11.23
2023-04-21T01:57:35.173Z,11.57
2023-04-21T02:00:03.140Z,10.77
2023-04-21T02:02:31.188Z,10.80
2023-04-21T02:04:59.163Z,10.80
2023-04-21T02:07:28.284Z,10.73
2023-04-21T02:09:56.099Z,10.52
2023-04-21T02:12:25.474Z,10.45
2023-04-21T02:14:53.310Z,11.38
2023-04-21T02:17:21.093Z,10.25
2023-04-21T02:19:49.139Z,10.50
2023-04-21T02:22:16.936Z,10.30
2023-04-21T02:24:44.941Z,10.07
2023-04-21T02:27:13.489Z,10.55
2023-04-21T02:29:42.853Z,9.88
2023-04-21T02:32:22.166Z,10.93
2023-04-21T02:34:53.401Z,10.23
2023-04-21T02:37:21.356Z,9.27
2023-04-21T02:39:49.209Z,10.35
2023-04-21T02:42:17.091Z,9.90
2023-04-21T02:44:46.506Z,9.43
2023-04-21T02:47:17.143Z,9.25
2023-04-21T02:49:45.164Z,10.40
2023-04-21T02:52:13.578Z,9.27
2023-04-21T02:54:41.612Z,10.50
2023-04-21T02:57:10.069Z,10.52
2023-04-21T02:59:37.894Z,9.93
2023-04-21T03:02:07.152Z,10.63
2023-04-21T03:04:39.358Z,10.07
2023-04-21T03:07:12.489Z,10.32
2023-04-21T03:09:40.572Z,10.32
2023-04-21T03:12:08.346Z,10.85
2023-04-21T03:14:37.226Z,9.98
2023-04-21T03:17:05.030Z,10.70
2023-04-21T03:19:34.548Z,10.57
2023-04-21T03:22:02.372Z,10.35
2023-04-21T03:24:30.745Z,10.27
2023-04-21T03:26:59.347Z,10.15
2023-04-21T03:29:28.175Z,9.82
2023-04-21T03:31:56.054Z,9.98
2023-04-21T03:34:24.698Z,10.60
2023-04-21T03:36:54.151Z,10.88
2023-04-21T03:39:23.019Z,10.13
2023-04-21T03:41:53.166Z,10.07
2023-04-21T03:44:21.371Z,10.85
2023-04-21T03:46:49.163Z,10.35
2023-04-21T03:49:17.004Z,9.57
2023-04-21T03:51:44.830Z,9.68
2023-04-21T03:54:14.006Z,9.93
2023-04-21T03:56:41.876Z,10.63
2023-04-21T03:59:09.737Z,11.00
2023-04-21T04:01:37.592Z,10.90
2023-04-21T04:04:05.801Z,10.15
2023-04-21T04:06:35.507Z,10.45
2023-04-21T04:09:04.653Z,10.07
2023-04-21T04:11:33.883Z,11.18
2023-04-21T04:14:01.725Z,10.05
2023-04-21T04:16:29.918Z,8.95
2023-04-21T04:18:58.076Z,9.60
2023-04-21T04:21:27.070Z,9.45
2023-04-21T04:23:55.000Z,9.13
2023-04-21T04:26:24.828Z,9.45
2023-04-21T04:28:56.310Z,9.80
2023-04-21T04:31:25.649Z,10.10
2023-04-21T04:33:55.275Z,9.80
2023-04-21T04:36:23.762Z,9.63
2023-04-21T04:38:51.688Z,9.60
2023-04-21T04:41:20.908Z,9.98
2023-04-21T04:43:48.858Z,10.73
2023-04-21T04:46:20.484Z,9.80
2023-04-21T04:48:48.710Z,10.77
2023-04-21T04:51:17.008Z,9.93
2023-04-21T04:53:44.958Z,9.10
2023-04-21T04:56:12.839Z,9.48
2023-04-21T04:58:40.979Z,9.35
2023-04-21T05:01:13.562Z,9.80
2023-04-21T05:03:43.008Z,9.35
2023-04-21T05:06:11.299Z,8.68
2023-04-21T05:08:40.230Z,9.40
2023-04-21T05:11:08.696Z,9.65
2023-04-21T05:13:39.587Z,8.85
2023-04-21T05:16:10.130Z,9.25
2023-04-21T05:18:38.330Z,9.23
2023-04-21T05:21:07.754Z,9.93
2023-04-21T05:23:35.913Z,8.82
2023-04-21T05:26:04.661Z,9.65
2023-04-21T05:28:33.268Z,9.98
2023-04-21T05:31:01.306Z,10.10
2023-04-21T05:33:31.834Z,9.68
2023-04-21T05:36:00.208Z,11.15
2023-04-21T05:38:29.472Z,10.48
2023-04-21T05:40:57.558Z,10.70
2023-04-21T05:43:25.446Z,9.65
2023-04-21T05:45:53.519Z,10.02
2023-04-21T05:48:21.593Z,9.68
2023-04-21T05:50:49.607Z,9.63
2023-04-21T05:53:17.969Z,9.55
2023-04-21T05:55:47.532Z,10.07
2023-04-21T05:58:15.535Z,9.35
2023-04-21T06:00:47.887Z,9.52
2023-04-21T06:03:17.188Z,8.88
2023-04-21T06:05:45.350Z,9.43
2023-04-21T06:08:13.488Z,8.45
2023-04-21T06:10:41.385Z,10.00
2023-04-21T06:13:10.761Z,9.50
2023-04-21T06:15:38.664Z,10.60
2023-04-21T06:18:06.903Z,9.93
2023-04-21T06:20:35.013Z,8.95
2023-04-21T06:23:03.047Z,9.35
2023-04-21T06:25:31.237Z,9.43
2023-04-21T06:27:59.378Z,9.90
2023-04-21T06:30:28.871Z,8.73
2023-04-21T06:32:56.938Z,9.70
2023-04-21T06:35:24.881Z,9.70
2023-04-21T06:37:53.151Z,9.95
2023-04-21T06:40:21.202Z,10.55
2023-04-21T06:42:49.143Z,10.35
2023-04-21T06:45:17.165Z,10.30
2023-04-21T06:47:46.888Z,9.68
2023-04-21T06:50:14.812Z,10.52
2023-04-21T06:52:42.822Z,9.75
2023-04-21T06:55:11.143Z,9.80
2023-04-21T06:57:39.318Z,10.02
2023-04-21T07:00:13.926Z,10.15
2023-04-21T07:02:42.409Z,11.50
2023-04-21T07:05:11.834Z,10.40
2023-04-21T07:07:39.751Z,10.80
2023-04-21T07:10:08.502Z,11.07
2023-04-21T07:12:36.727Z,11.13
2023-04-21T07:15:05.216Z,9.85
2023-04-21T07:17:33.139Z,9.55
2023-04-21T07:20:01.050Z,9.57
2023-04-21T07:22:30.662Z,9.35
2023-04-21T07:24:58.749Z,9.70
2023-04-21T07:27:28.095Z,10.00
2023-04-21T07:29:55.961Z,9.65
2023-04-21T07:32:23.991Z,9.68
2023-04-21T07:34:51.899Z,10.55
2023-04-21T07:37:19.942Z,10.15
2023-04-21T07:39:49.200Z,10.77
2023-04-21T07:42:17.014Z,10.00
2023-04-21T07:44:44.887Z,10.57
2023-04-21T07:47:12.706Z,9.55
2023-04-21T07:49:40.660Z,10.48
2023-04-21T07:52:08.846Z,10.40
2023-04-21T07:54:36.699Z,9.90
2023-04-21T07:57:07.185Z,10.48
2023-04-21T07:59:35.523Z,10.57
2023-04-21T08:02:03.934Z,10.50
2023-04-21T08:04:32.649Z,10.63
2023-04-21T08:07:01.980Z,10.43
2023-04-21T08:12:20.932Z,11.10
2023-04-21T08:14:50.854Z,11.35
2023-04-21T08:17:19.184Z,10.48
2023-04-21T08:19:47.185Z,10.07
2023-04-21T08:22:18.081Z,10.27
2023-04-21T08:24:46.469Z,11.07
2023-04-21T08:27:14.622Z,10.93
2023-04-21T08:29:44.464Z,10.13
2023-04-21T08:32:12.840Z,11.00
2023-04-21T08:34:41.592Z,11.35
2023-04-21T08:37:09.855Z,10.30
2023-04-21T08:39:37.791Z,10.30
2023-04-21T08:42:06.838Z,9.73
2023-04-21T08:44:34.688Z,10.32
2023-04-21T08:47:04.688Z,9.35
2023-04-21T08:49:34.545Z,9.68
2023-04-21T08:52:02.973Z,10.10
2023-04-21T08:54:40.719Z,10.20
2023-04-21T08:57:15.942Z,9.05
2023-04-21T08:59:45.231Z,9.75
2023-04-21T09:02:17.217Z,10.35
2023-04-21T09:04:47.313Z,9.35
2023-04-21T09:07:36.004Z,9.45
2023-04-21T09:10:07.313Z,8.90
2023-04-21T09:12:35.953Z,8.85
2023-04-21T09:15:06.445Z,9.43
2023-04-21T09:17:37.245Z,9.38
2023-04-21T09:20:19.830Z,9.68
2023-04-21T09:22:49.757Z,9.73
2023-04-21T09:25:18.640Z,10.27
2023-04-21T09:27:47.118Z,10.05
2023-04-21T09:30:19.799Z,9.38
2023-04-21T09:32:51.319Z,10.43
2023-04-21T09:35:23.156Z,9.60
2023-04-21T09:37:56.988Z,9.43
2023-04-21T09:40:37.039Z,9.98
2023-04-21T09:43:05.350Z,9.88
2023-04-21T09:45:40.088Z,9.88
2023-04-21T09:48:12.432Z,8.98
2023-04-21T09:51:22.015Z,9.57
2023-04-21T09:53:30.622Z,9.68
2023-04-21T09:56:00.651Z,9.38
2023-04-21T09:58:40.459Z,10.13
2023-04-21T10:01:10.459Z,9.07
2023-04-21T10:03:45.113Z,9.18
2023-04-21T10:06:13.540Z,9.27
2023-04-21T10:08:42.386Z,9.13
2023-04-21T10:11:10.423Z,9.45
2023-04-21T10:13:39.130Z,9.70
2023-04-21T10:16:23.505Z,9.77
2023-04-21T10:18:59.494Z,9.57
2023-04-21T10:21:28.676Z,9.75
2023-04-21T10:23:59.248Z,9.55
2023-04-21T10:26:33.652Z,9.45
2023-04-21T10:29:02.973Z,9.85
2023-04-21T10:31:34.693Z,9.65
2023-04-21T10:34:21.434Z,9.63
2023-04-21T10:37:13.016Z,8.60
2023-04-21T10:39:48.275Z,8.88
2023-04-21T10:42:23.062Z,8.90
2023-04-21T10:45:04.862Z,9.13
2023-04-21T10:47:38.409Z,9.10
2023-04-21T10:50:29.663Z,8.88
2023-04-21T10:53:00.561Z,8.82
2023-04-21T10:55:30.667Z,9.00
2023-04-21T10:58:02.613Z,8.27
2023-04-21T11:00:30.595Z,9.38
2023-04-21T11:03:00.701Z,8.48
2023-04-21T11:05:36.596Z,9.68
2023-04-21T11:08:11.355Z,9.63
2023-04-21T11:10:56.928Z,10.00
2023-04-21T11:13:26.934Z,8.85
2023-04-21T11:16:06.805Z,9.15
2023-04-21T11:18:45.625Z,9.63
2023-04-21T11:21:18.388Z,10.30
2023-04-21T11:23:51.244Z,9.07
2023-04-21T11:26:20.394Z,9.25
2023-04-21T11:28:51.256Z,7.88
2023-04-21T11:31:19.414Z,8.75
2023-04-21T11:33:47.488Z,8.25
2023-04-21T11:36:16.845Z,8.43
2023-04-21T11:38:44.754Z,7.90
2023-04-21T11:41:12.695Z,8.10
2023-04-21T11:43:40.571Z,7.22
2023-04-21T11:46:18.939Z,6.97
2023-04-21T11:48:47.377Z,7.57
2023-04-21T11:51:22.207Z,7.57
2023-04-21T11:53:50.653Z,7.75
2023-04-21T11:56:21.757Z,7.85
2023-04-21T11:58:52.086Z,8.27
2023-04-21T12:01:21.580Z,7.78
2023-04-21T12:03:54.095Z,7.18
2023-04-21T12:08:57.953Z,7.15
2023-04-21T12:11:28.136Z,7.80
2023-04-21T12:13:57.965Z,7.70
2023-04-21T12:16:28.395Z,7.15
2023-04-21T12:18:57.627Z,6.70
2023-04-21T12:21:30.436Z,6.80
2023-04-21T12:23:58.729Z,7.15
2023-04-21T12:26:26.610Z,7.07
2023-04-21T12:28:54.846Z,6.93
2023-04-21T12:31:22.839Z,6.93
2023-04-21T12:33:50.942Z,7.38
2023-04-21T12:36:18.858Z,6.88
2023-04-21T12:38:48.248Z,6.82
2023-04-21T12:41:16.227Z,6.82
2023-04-21T12:43:44.313Z,6.90
2023-04-21T12:46:12.408Z,6.55
2023-04-21T12:48:40.272Z,6.70
2023-04-21T12:51:08.257Z,6.82
2023-04-21T12:53:36.813Z,6.38
2023-04-21T12:56:07.071Z,6.13
2023-04-21T12:58:34.993Z,6.30
2023-04-21T13:01:03.003Z,5.93
2023-04-21T13:03:31.089Z,6.38
2023-04-21T13:05:59.342Z,6.22
2023-04-21T13:08:27.450Z,6.43
2023-04-21T13:10:55.727Z,6.78
2023-04-21T13:13:25.558Z,7.00
2023-04-21T13:15:53.801Z,6.47
2023-04-21T13:18:21.973Z,6.65
2023-04-21T13:20:49.931Z,6.90
2023-04-21T13:23:19.539Z,6.47
2023-04-21T13:25:48.197Z,6.55
2023-04-21T13:28:16.968Z,6.32
2023-04-21T13:30:46.619Z,6.65
2023-04-21T13:33:14.996Z,7.00
2023-04-21T13:35:44.671Z,6.57
2023-04-21T13:38:13.056Z,6.40
2023-04-21T13:40:48.249Z,6.60
2023-04-21T13:43:17.724Z,5.95
2023-04-21T13:45:48.256Z,6.03
2023-04-21T13:48:16.106Z,6.07
2023-04-21T13:50:44.064Z,6.28
2023-04-21T13:53:14.092Z,5.50
2023-04-21T13:55:42.758Z,6.25
2023-04-21T13:58:11.071Z,5.63
2023-04-21T14:00:39.771Z,4.80
2023-04-21T14:03:10.196Z,4.70
2023-04-21T14:05:38.883Z,5.95
2023-04-21T14:08:10.239Z,5.53
2023-04-21T14:10:38.262Z,5.88
2023-04-21T14:13:06.378Z,5.80
2023-04-21T14:15:34.660Z,5.70
2023-04-21T14:18:02.694Z,5.43
2023-04-21T14:20:32.257Z,5.30
2023-04-21T14:23:00.402Z,5.05
2023-04-21T14:25:31.257Z,5.10
2023-04-21T14:28:00.561Z,4.90
2023-04-21T14:30:28.430Z,5.00
2023-04-21T14:32:56.464Z,4.57
2023-04-21T14:35:24.490Z,4.40
2023-04-21T14:37:55.402Z,4.68
2023-04-21T14:40:23.958Z,4.40
2023-04-21T14:42:53.952Z,5.15
2023-04-21T14:45:22.200Z,4.40
2023-04-21T14:47:54.891Z,4.20
2023-04-21T14:50:23.300Z,4.50
2023-04-21T14:52:51.281Z,3.88
2023-04-21T14:55:20.760Z,4.03
2023-04-21T14:57:48.639Z,4.07
2023-04-21T15:00:17.508Z,4.28
2023-04-21T15:02:45.622Z,4.07
2023-04-21T15:05:13.768Z,3.80
2023-04-21T15:07:42.945Z,4.03
2023-04-21T15:10:11.842Z,3.90
2023-04-21T15:12:41.877Z,3.72
2023-04-21T15:15:10.481Z,4.22
2023-04-21T15:17:38.591Z,3.72
2023-04-21T15:20:08.080Z,3.70
2023-04-21T15:22:35.970Z,3.63
2023-04-21T15:25:04.388Z,3.60
2023-04-21T15:27:32.690Z,3.92
2023-04-21T15:30:04.015Z,4.00
2023-04-21T15:32:34.464Z,3.88
2023-04-21T15:35:02.603Z,3.35
2023-04-21T15:37:33.159Z,3.53
2023-04-21T15:40:01.283Z,3.90
2023-04-21T15:42:29.236Z,3.67
2023-04-21T15:44:58.119Z,3.58
2023-04-21T15:47:27.598Z,3.58
2023-04-21T15:49:55.711Z,4.13
2023-04-21T15:52:23.700Z,3.80
2023-04-21T15:54:52.212Z,3.72
2023-04-21T15:57:20.363Z,4.00
2023-04-21T15:59:49.024Z,3.50
2023-04-21T16:02:17.329Z,3.40
2023-04-21T16:04:47.645Z,3.42
2023-04-21T16:07:16.098Z,3.42
2023-04-21T16:09:44.101Z,3.83
2023-04-21T16:12:12.296Z,3.70
2023-04-21T16:14:54.339Z,3.90
2023-04-21T16:17:27.695Z,3.42
2023-04-21T16:19:57.202Z,3.60
2023-04-21T16:22:25.204Z,3.40
2023-04-21T16:24:54.234Z,3.30
2023-04-21T16:27:22.165Z,3.45
2023-04-21T16:29:52.897Z,3.70
2023-04-21T16:32:20.918Z,3.42
2023-04-21T16:34:49.100Z,3.75
2023-04-21T16:37:19.031Z,3.40
2023-04-21T16:39:47.062Z,3.58
2023-04-21T16:42:15.130Z,3.80
2023-04-21T16:44:43.201Z,3.65
2023-04-21T16:47:11.462Z,3.72
2023-04-21T16:49:43.618Z,3.35
2023-04-21T16:52:12.246Z,3.60
2023-04-21T16:54:41.836Z,2.65
2023-04-21T16:57:09.940Z,2.13
2023-04-21T16:59:38.081Z,2.10
2023-04-21T17:02:06.303Z,1.75
2023-04-21T17:04:37.341Z,1.50
2023-04-21T17:07:07.411Z,1.70
2023-04-21T17:09:35.316Z,1.80
2023-04-21T17:12:04.976Z,1.73
2023-04-21T17:14:36.103Z,1.80
2023-04-21T17:17:04.290Z,1.77
2023-04-21T17:19:32.253Z,2.00
2023-04-21T17:22:00.403Z,1.70
2023-04-21T17:24:33.098Z,1.92
2023-04-21T17:27:07.810Z,1.90
2023-04-21T17:29:35.734Z,1.60
2023-04-21T17:32:05.088Z,1.65
2023-04-21T17:34:33.271Z,1.83
2023-04-21T17:37:02.525Z,1.58
2023-04-21T17:39:30.536Z,1.60
2023-04-21T17:42:02.017Z,2.00
2023-04-21T17:44:33.779Z,1.75
2023-04-21T17:47:02.186Z,1.90
2023-04-21T17:49:30.206Z,1.85
2023-04-21T17:51:58.184Z,1.55
2023-04-21T17:54:26.454Z,1.80
2023-04-21T17:56:54.582Z,1.55
2023-04-21T17:59:24.564Z,1.80
2023-04-21T18:01:54.978Z,1.92
2023-04-21T18:04:24.977Z,1.60
2023-04-21T18:06:53.183Z,1.70
2023-04-21T18:09:21.279Z,1.60
2023-04-21T18:11:49.220Z,1.90
2023-04-21T18:14:17.645Z,2.03
2023-04-21T18:16:45.670Z,2.03
2023-04-21T18:19:14.982Z,2.10
2023-04-21T18:21:42.954Z,1.80
2023-04-21T18:24:10.949Z,1.80
2023-04-21T18:26:39.278Z,1.60
2023-04-21T18:29:07.481Z,1.70
2023-04-21T18:31:35.754Z,1.83
2023-04-21T18:34:04.938Z,1.73
2023-04-21T18:36:35.721Z,1.60
2023-04-21T18:39:05.156Z,1.73
2023-04-21T18:41:33.459Z,1.45
2023-04-21T18:44:01.530Z,1.70
2023-04-21T18:46:29.538Z,1.90
2023-04-21T18:48:57.610Z,1.98
2023-04-21T18:51:27.435Z,2.10
2023-04-21T18:53:56.832Z,2.00
2023-04-21T18:56:24.950Z,1.90
2023-04-21T18:58:52.969Z,2.25
2023-04-21T19:01:21.008Z,2.20
2023-04-21T19:03:49.374Z,1.95
2023-04-21T19:06:17.522Z,2.58
2023-04-21T19:08:45.588Z,2.20
2023-04-21T19:11:15.894Z,2.22
2023-04-21T19:13:43.902Z,2.55
2023-04-21T19:16:12.688Z,2.50
2023-04-21T19:18:41.533Z,2.13
2023-04-21T19:21:12.712Z,1.77
2023-04-21T19:23:41.278Z,1.67
2023-04-21T19:26:09.970Z,1.45
2023-04-21T19:28:41.865Z,1.30
2023-04-21T19:31:10.146Z,1.40
2023-04-21T19:33:37.953Z,1.17
2023-04-21T19:36:06.587Z,1.13
2023-04-21T19:38:34.632Z,1.60
2023-04-21T19:41:02.612Z,1.30
2023-04-21T19:43:30.491Z,1.42
2023-04-21T19:45:59.804Z,1.48
2023-04-21T19:48:27.773Z,1.10
2023-04-21T19:50:56.031Z,1.40
2023-04-21T19:53:23.832Z,1.10
2023-04-21T19:55:52.822Z,1.10
2023-04-21T19:58:36.363Z,1.20
2023-04-21T20:01:09.446Z,1.30
2023-04-21T20:03:37.950Z,1.40
2023-04-21T20:06:06.537Z,1.30
2023-04-21T20:08:35.560Z,1.40
2023-04-21T20:11:03.598Z,1.30
2023-04-21T20:13:31.476Z,1.55
2023-04-21T20:15:59.433Z,1.50
2023-04-21T20:18:29.162Z,1.45
2023-04-21T20:20:57.118Z,1.50
2023-04-21T20:23:25.051Z,1.50
2023-04-21T20:25:52.923Z,1.55
2023-04-21T20:28:20.824Z,1.70
2023-04-21T20:30:48.836Z,1.48
2023-04-21T20:33:18.043Z,1.50
2023-04-21T20:35:47.330Z,1.70
2023-04-21T20:38:15.965Z,1.80
2023-04-21T20:40:44.127Z,1.50
2023-04-21T20:43:12.332Z,1.70
2023-04-21T20:45:41.340Z,1.80
2023-04-21T20:48:09.280Z,1.75
2023-04-21T20:50:37.393Z,1.70
2023-04-21T20:53:08.838Z,1.75
2023-04-21T20:55:37.248Z,1.60
2023-04-21T20:58:05.574Z,1.88
2023-04-21T21:00:34.688Z,1.92
2023-04-21T21:03:03.937Z,1.88
2023-04-21T21:05:34.085Z,1.85
2023-04-21T21:08:02.087Z,2.28
2023-04-21T21:10:31.407Z,2.00
2023-04-21T21:12:59.671Z,1.92
2023-04-21T21:15:28.822Z,2.10
2023-04-21T21:17:57.816Z,2.08
2023-04-21T21:20:26.016Z,2.20
2023-04-21T21:22:54.090Z,1.90
2023-04-21T21:25:22.128Z,2.00
2023-04-21T21:27:51.406Z,2.00
2023-04-21T21:30:19.264Z,1.65
2023-04-21T21:32:47.739Z,2.10
2023-04-21T21:35:15.796Z,2.00
2023-04-21T21:37:43.638Z,2.00
2023-04-21T21:40:12.188Z,2.10
2023-04-21T21:42:39.950Z,2.20
2023-04-21T21:45:11.053Z,2.60
2023-04-21T21:47:43.052Z,2.30
2023-04-21T21:50:13.108Z,2.03
2023-04-21T21:52:41.103Z,2.35
2023-04-21T21:55:09.866Z,1.90
2023-04-21T21:57:37.970Z,2.20
2023-04-21T22:00:08.167Z,2.20
2023-04-21T22:02:37.796Z,2.40
2023-04-21T22:05:06.193Z,2.30
2023-04-21T22:07:35.401Z,2.15
2023-04-21T22:10:03.721Z,2.28
2023-04-21T22:12:32.442Z,2.25
2023-04-21T22:15:00.340Z,1.95
2023-04-21T22:17:29.688Z,2.08
2023-04-21T22:19:58.971Z,2.30
2023-04-21T22:22:26.861Z,2.38
2023-04-21T22:24:54.679Z,2.50
2023-04-21T22:27:22.569Z,2.47
2023-04-21T22:29:50.952Z,2.65
2023-04-21T22:32:18.805Z,2.63
2023-04-21T22:34:46.618Z,2.35
2023-04-21T22:37:15.880Z,2.83
2023-04-21T22:39:43.651Z,2.58
2023-04-21T22:42:11.414Z,2.63
2023-04-21T22:44:39.618Z,3.15
2023-04-21T22:47:07.561Z,3.25
2023-04-21T22:49:35.537Z,3.35
2023-04-21T22:52:03.958Z,2.75
2023-04-21T22:54:33.110Z,3.10
2023-04-21T22:57:02.135Z,2.95
2023-04-21T22:59:30.028Z,3.10
2023-04-21T23:01:57.880Z,3.53
2023-04-21T23:04:25.836Z,3.75
2023-04-21T23:06:53.780Z,4.13
2023-04-21T23:09:21.589Z,4.00
2023-04-21T23:11:50.781Z,4.20
2023-04-21T23:14:18.630Z,3.58
2023-04-21T23:16:46.507Z,3.90
2023-04-21T23:19:14.379Z,3.78
2023-04-21T23:21:42.293Z,4.10
2023-04-21T23:24:10.055Z,4.38
2023-04-21T23:26:37.824Z,3.67
2023-04-21T23:29:07.016Z,4.10
2023-04-21T23:31:34.836Z,4.40
2023-04-21T23:34:02.687Z,4.63
2023-04-21T23:36:31.865Z,4.15
2023-04-21T23:38:59.827Z,4.78
2023-04-21T23:41:27.788Z,4.50
2023-04-21T23:43:55.625Z,4.80
2023-04-21T23:46:24.839Z,4.32
2023-04-21T23:48:52.691Z,4.40
2023-04-21T23:51:20.868Z,4.60
2023-04-21T23:53:48.932Z,4.50
2023-04-21T23:56:16.859Z,4.80
2023-04-21T23:58:44.980Z,4.53
